sensor_id;sensor_type;location;lat;lon;timestamp;temperature;humidity
58638;DHT22;54976;51.510;7.522;2023-06-14T00:02:33;17.70;53.50
58638;DHT22;54976;51.510;7.522;2023-06-14T00:05:34;17.60;53.80
58638;DHT22;54976;51.510;7.522;2023-06-14T00:08:39;17.50;53.90
58638;DHT22;54976;51.510;7.522;2023-06-14T00:11:41;17.50;54.50
58638;DHT22;54976;51.510;7.522;2023-06-14T00:14:41;17.40;54.60
58638;DHT22;54976;51.510;7.522;2023-06-14T00:17:42;17.40;54.60
58638;DHT22;54976;51.510;7.522;2023-06-14T00:20:47;17.40;54.80
58638;DHT22;54976;51.510;7.522;2023-06-14T00:23:48;17.30;54.70
58638;DHT22;54976;51.510;7.522;2023-06-14T00:26:49;17.40;54.80
58638;DHT22;54976;51.510;7.522;2023-06-14T00:29:49;17.30;54.90
58638;DHT22;54976;51.510;7.522;2023-06-14T00:32:50;17.30;55.00
58638;DHT22;54976;51.510;7.522;2023-06-14T00:35:51;17.30;55.00
58638;DHT22;54976;51.510;7.522;2023-06-14T00:38:54;17.20;54.90
58638;DHT22;54976;51.510;7.522;2023-06-14T00:41:54;17.20;54.70
58638;DHT22;54976;51.510;7.522;2023-06-14T00:44:55;17.20;55.00
58638;DHT22;54976;51.510;7.522;2023-06-14T00:47:56;17.20;55.10
58638;DHT22;54976;51.510;7.522;2023-06-14T00:50:57;17.20;55.20
58638;DHT22;54976;51.510;7.522;2023-06-14T00:53:58;17.10;55.20
58638;DHT22;54976;51.510;7.522;2023-06-14T00:56:58;17.10;55.50
58638;DHT22;54976;51.510;7.522;2023-06-14T00:59:59;17.10;55.50
58638;DHT22;54976;51.510;7.522;2023-06-14T01:03:00;17.00;55.60
58638;DHT22;54976;51.510;7.522;2023-06-14T01:06:30;17.00;56.00
58638;DHT22;54976;51.510;7.522;2023-06-14T01:09:40;16.90;56.10
58638;DHT22;54976;51.510;7.522;2023-06-14T01:13:05;16.80;56.50
58638;DHT22;54976;51.510;7.522;2023-06-14T01:16:08;16.80;56.80
58638;DHT22;54976;51.510;7.522;2023-06-14T01:19:12;16.80;57.00
58638;DHT22;54976;51.510;7.522;2023-06-14T01:22:14;16.70;57.00
58638;DHT22;54976;51.510;7.522;2023-06-14T01:25:15;16.70;57.10
58638;DHT22;54976;51.510;7.522;2023-06-14T01:28:17;16.60;57.20
58638;DHT22;54976;51.510;7.522;2023-06-14T01:31:20;16.50;57.40
58638;DHT22;54976;51.510;7.522;2023-06-14T01:34:24;16.50;57.50
58638;DHT22;54976;51.510;7.522;2023-06-14T01:37:25;16.40;57.70
58638;DHT22;54976;51.510;7.522;2023-06-14T01:40:27;16.40;57.80
58638;DHT22;54976;51.510;7.522;2023-06-14T01:43:30;16.40;58.10
58638;DHT22;54976;51.510;7.522;2023-06-14T01:46:31;16.30;58.20
58638;DHT22;54976;51.510;7.522;2023-06-14T01:49:34;16.30;58.40
58638;DHT22;54976;51.510;7.522;2023-06-14T01:52:37;16.20;58.10
58638;DHT22;54976;51.510;7.522;2023-06-14T01:55:37;16.20;58.40
58638;DHT22;54976;51.510;7.522;2023-06-14T01:58:38;16.10;58.40
58638;DHT22;54976;51.510;7.522;2023-06-14T02:01:39;16.10;58.60
58638;DHT22;54976;51.510;7.522;2023-06-14T02:04:41;16.10;58.70
58638;DHT22;54976;51.510;7.522;2023-06-14T02:07:42;16.10;59.10
58638;DHT22;54976;51.510;7.522;2023-06-14T02:10:42;16.00;58.90
58638;DHT22;54976;51.510;7.522;2023-06-14T02:13:43;16.00;58.90
58638;DHT22;54976;51.510;7.522;2023-06-14T02:16:45;15.90;59.00
58638;DHT22;54976;51.510;7.522;2023-06-14T02:19:49;15.90;59.10
58638;DHT22;54976;51.510;7.522;2023-06-14T02:22:50;15.90;59.40
58638;DHT22;54976;51.510;7.522;2023-06-14T02:25:51;15.90;59.00
58638;DHT22;54976;51.510;7.522;2023-06-14T02:28:51;15.90;58.80
58638;DHT22;54976;51.510;7.522;2023-06-14T02:31:52;15.90;58.70
58638;DHT22;54976;51.510;7.522;2023-06-14T02:34:53;15.80;58.80
58638;DHT22;54976;51.510;7.522;2023-06-14T02:37:55;15.80;58.40
58638;DHT22;54976;51.510;7.522;2023-06-14T02:40:55;15.80;58.50
58638;DHT22;54976;51.510;7.522;2023-06-14T02:43:56;15.80;58.70
58638;DHT22;54976;51.510;7.522;2023-06-14T02:46:59;15.70;58.50
58638;DHT22;54976;51.510;7.522;2023-06-14T02:50:01;15.70;58.60
58638;DHT22;54976;51.510;7.522;2023-06-14T02:53:02;15.70;58.90
58638;DHT22;54976;51.510;7.522;2023-06-14T02:56:04;15.70;59.10
58638;DHT22;54976;51.510;7.522;2023-06-14T02:59:04;15.70;59.00
58638;DHT22;54976;51.510;7.522;2023-06-14T03:02:05;15.60;59.00
58638;DHT22;54976;51.510;7.522;2023-06-14T03:05:06;15.60;59.30
58638;DHT22;54976;51.510;7.522;2023-06-14T03:08:07;15.60;59.20
58638;DHT22;54976;51.510;7.522;2023-06-14T03:11:08;15.50;59.10
58638;DHT22;54976;51.510;7.522;2023-06-14T03:14:09;15.50;59.80
58638;DHT22;54976;51.510;7.522;2023-06-14T03:17:11;15.40;60.00
58638;DHT22;54976;51.510;7.522;2023-06-14T03:20:12;15.40;59.90
58638;DHT22;54976;51.510;7.522;2023-06-14T03:23:12;15.30;59.70
58638;DHT22;54976;51.510;7.522;2023-06-14T03:26:13;15.30;59.70
58638;DHT22;54976;51.510;7.522;2023-06-14T03:29:15;15.30;59.90
58638;DHT22;54976;51.510;7.522;2023-06-14T03:32:16;15.30;59.80
58638;DHT22;54976;51.510;7.522;2023-06-14T03:35:17;15.30;59.90
58638;DHT22;54976;51.510;7.522;2023-06-14T03:38:18;15.30;59.70
58638;DHT22;54976;51.510;7.522;2023-06-14T03:41:18;15.30;59.60
58638;DHT22;54976;51.510;7.522;2023-06-14T03:44:19;15.30;59.70
58638;DHT22;54976;51.510;7.522;2023-06-14T03:47:19;15.30;59.80
58638;DHT22;54976;51.510;7.522;2023-06-14T03:50:20;15.30;60.10
58638;DHT22;54976;51.510;7.522;2023-06-14T03:53:21;15.30;59.70
58638;DHT22;54976;51.510;7.522;2023-06-14T03:56:23;15.30;59.80
58638;DHT22;54976;51.510;7.522;2023-06-14T03:59:24;15.30;60.20
58638;DHT22;54976;51.510;7.522;2023-06-14T04:02:26;15.30;60.40
58638;DHT22;54976;51.510;7.522;2023-06-14T04:05:29;15.30;60.60
58638;DHT22;54976;51.510;7.522;2023-06-14T04:08:29;15.20;60.80
58638;DHT22;54976;51.510;7.522;2023-06-14T04:11:30;15.30;61.50
58638;DHT22;54976;51.510;7.522;2023-06-14T04:14:32;15.10;62.80
58638;DHT22;54976;51.510;7.522;2023-06-14T04:17:33;15.10;62.70
58638;DHT22;54976;51.510;7.522;2023-06-14T04:20:34;15.00;63.20
58638;DHT22;54976;51.510;7.522;2023-06-14T04:23:35;15.00;63.80
58638;DHT22;54976;51.510;7.522;2023-06-14T04:26:35;15.00;64.30
58638;DHT22;54976;51.510;7.522;2023-06-14T04:29:36;15.00;64.40
58638;DHT22;54976;51.510;7.522;2023-06-14T04:32:37;15.10;64.20
58638;DHT22;54976;51.510;7.522;2023-06-14T04:35:39;15.10;64.40
58638;DHT22;54976;51.510;7.522;2023-06-14T04:38:41;15.10;64.60
58638;DHT22;54976;51.510;7.522;2023-06-14T04:41:43;15.10;64.40
58638;DHT22;54976;51.510;7.522;2023-06-14T04:44:44;15.10;65.10
58638;DHT22;54976;51.510;7.522;2023-06-14T04:47:45;15.20;65.20
58638;DHT22;54976;51.510;7.522;2023-06-14T04:50:46;15.30;65.30
58638;DHT22;54976;51.510;7.522;2023-06-14T04:53:47;15.30;64.90
58638;DHT22;54976;51.510;7.522;2023-06-14T04:56:49;15.30;65.20
58638;DHT22;54976;51.510;7.522;2023-06-14T04:59:50;15.30;64.40
58638;DHT22;54976;51.510;7.522;2023-06-14T05:02:55;15.40;64.00
58638;DHT22;54976;51.510;7.522;2023-06-14T05:05:57;15.40;64.50
58638;DHT22;54976;51.510;7.522;2023-06-14T05:08:58;15.50;64.40
58638;DHT22;54976;51.510;7.522;2023-06-14T05:11:59;15.60;64.40
58638;DHT22;54976;51.510;7.522;2023-06-14T05:15:00;15.70;64.00
58638;DHT22;54976;51.510;7.522;2023-06-14T05:18:01;15.80;63.90
58638;DHT22;54976;51.510;7.522;2023-06-14T05:21:03;15.90;64.00
58638;DHT22;54976;51.510;7.522;2023-06-14T05:24:05;16.00;63.10
58638;DHT22;54976;51.510;7.522;2023-06-14T05:27:05;16.10;62.10
58638;DHT22;54976;51.510;7.522;2023-06-14T05:30:07;16.20;61.50
58638;DHT22;54976;51.510;7.522;2023-06-14T05:33:08;16.40;60.90
58638;DHT22;54976;51.510;7.522;2023-06-14T05:36:09;16.60;60.90
58638;DHT22;54976;51.510;7.522;2023-06-14T05:39:10;16.60;60.70
58638;DHT22;54976;51.510;7.522;2023-06-14T05:42:10;16.90;60.40
58638;DHT22;54976;51.510;7.522;2023-06-14T05:45:11;17.30;59.80
58638;DHT22;54976;51.510;7.522;2023-06-14T05:48:12;17.80;58.90
58638;DHT22;54976;51.510;7.522;2023-06-14T05:51:12;18.20;57.90
58638;DHT22;54976;51.510;7.522;2023-06-14T05:54:13;18.60;56.30
58638;DHT22;54976;51.510;7.522;2023-06-14T05:57:13;18.70;54.80
58638;DHT22;54976;51.510;7.522;2023-06-14T06:00:14;18.70;55.20
58638;DHT22;54976;51.510;7.522;2023-06-14T06:03:16;18.60;55.50
58638;DHT22;54976;51.510;7.522;2023-06-14T06:06:16;18.50;55.70
58638;DHT22;54976;51.510;7.522;2023-06-14T06:09:17;18.60;55.30
58638;DHT22;54976;51.510;7.522;2023-06-14T06:12:18;18.60;55.50
58638;DHT22;54976;51.510;7.522;2023-06-14T06:15:18;18.70;55.60
58638;DHT22;54976;51.510;7.522;2023-06-14T06:18:19;18.70;55.00
58638;DHT22;54976;51.510;7.522;2023-06-14T06:21:19;18.60;54.50
58638;DHT22;54976;51.510;7.522;2023-06-14T06:24:20;18.60;54.90
58638;DHT22;54976;51.510;7.522;2023-06-14T06:27:20;18.70;54.20
58638;DHT22;54976;51.510;7.522;2023-06-14T06:30:21;18.60;53.90
58638;DHT22;54976;51.510;7.522;2023-06-14T06:33:22;18.60;54.50
58638;DHT22;54976;51.510;7.522;2023-06-14T06:36:23;18.80;54.00
58638;DHT22;54976;51.510;7.522;2023-06-14T06:39:24;19.10;53.20
58638;DHT22;54976;51.510;7.522;2023-06-14T06:42:26;19.50;52.30
58638;DHT22;54976;51.510;7.522;2023-06-14T06:45:26;19.60;51.60
58638;DHT22;54976;51.510;7.522;2023-06-14T06:48:27;19.70;51.80
58638;DHT22;54976;51.510;7.522;2023-06-14T06:51:28;19.60;51.80
58638;DHT22;54976;51.510;7.522;2023-06-14T06:54:29;19.60;51.60
58638;DHT22;54976;51.510;7.522;2023-06-14T06:57:30;19.70;52.20
58638;DHT22;54976;51.510;7.522;2023-06-14T07:00:30;20.10;52.10
58638;DHT22;54976;51.510;7.522;2023-06-14T07:03:31;20.30;51.30
58638;DHT22;54976;51.510;7.522;2023-06-14T07:06:31;20.10;50.50
58638;DHT22;54976;51.510;7.522;2023-06-14T07:09:32;20.30;50.80
58638;DHT22;54976;51.510;7.522;2023-06-14T07:12:34;20.90;50.10
58638;DHT22;54976;51.510;7.522;2023-06-14T07:15:39;21.80;48.80
58638;DHT22;54976;51.510;7.522;2023-06-14T07:18:40;22.40;48.90
58638;DHT22;54976;51.510;7.522;2023-06-14T07:21:40;23.00;46.60
58638;DHT22;54976;51.510;7.522;2023-06-14T07:24:41;22.90;45.00
58638;DHT22;54976;51.510;7.522;2023-06-14T07:27:43;23.30;44.60
58638;DHT22;54976;51.510;7.522;2023-06-14T07:30:44;23.90;44.60
58638;DHT22;54976;51.510;7.522;2023-06-14T07:33:45;24.40;44.20
58638;DHT22;54976;51.510;7.522;2023-06-14T07:36:46;24.10;42.60
58638;DHT22;54976;51.510;7.522;2023-06-14T07:39:46;24.70;43.50
58638;DHT22;54976;51.510;7.522;2023-06-14T07:42:47;25.10;42.40
58638;DHT22;54976;51.510;7.522;2023-06-14T07:45:47;25.10;41.10
58638;DHT22;54976;51.510;7.522;2023-06-14T07:48:48;24.80;40.30
58638;DHT22;54976;51.510;7.522;2023-06-14T07:51:48;24.90;40.10
58638;DHT22;54976;51.510;7.522;2023-06-14T07:54:50;24.30;38.90
58638;DHT22;54976;51.510;7.522;2023-06-14T07:57:51;24.40;40.20
58638;DHT22;54976;51.510;7.522;2023-06-14T08:00:51;25.10;40.50
58638;DHT22;54976;51.510;7.522;2023-06-14T08:03:55;25.80;37.70
58638;DHT22;54976;51.510;7.522;2023-06-14T08:06:55;26.60;37.30
58638;DHT22;54976;51.510;7.522;2023-06-14T08:09:56;26.60;37.10
58638;DHT22;54976;51.510;7.522;2023-06-14T08:12:57;26.50;36.90
58638;DHT22;54976;51.510;7.522;2023-06-14T08:15:57;26.70;36.10
58638;DHT22;54976;51.510;7.522;2023-06-14T08:18:58;26.70;35.70
58638;DHT22;54976;51.510;7.522;2023-06-14T08:21:59;25.40;37.50
58638;DHT22;54976;51.510;7.522;2023-06-14T08:25:00;25.50;37.80
58638;DHT22;54976;51.510;7.522;2023-06-14T08:28:01;25.60;37.00
58638;DHT22;54976;51.510;7.522;2023-06-14T08:31:02;25.80;38.10
58638;DHT22;54976;51.510;7.522;2023-06-14T08:34:03;26.30;37.40
58638;DHT22;54976;51.510;7.522;2023-06-14T08:37:04;26.20;35.20
58638;DHT22;54976;51.510;7.522;2023-06-14T08:40:20;25.00;37.20
58638;DHT22;54976;51.510;7.522;2023-06-14T08:43:21;24.20;37.90
58638;DHT22;54976;51.510;7.522;2023-06-14T08:46:22;23.50;37.80
58638;DHT22;54976;51.510;7.522;2023-06-14T08:49:26;23.10;39.00
58638;DHT22;54976;51.510;7.522;2023-06-14T08:52:28;23.20;39.40
58638;DHT22;54976;51.510;7.522;2023-06-14T08:55:34;23.30;39.20
58638;DHT22;54976;51.510;7.522;2023-06-14T08:58:34;23.60;38.70
58638;DHT22;54976;51.510;7.522;2023-06-14T09:01:37;23.60;38.60
58638;DHT22;54976;51.510;7.522;2023-06-14T09:04:37;23.40;38.00
58638;DHT22;54976;51.510;7.522;2023-06-14T09:07:40;23.20;38.20
58638;DHT22;54976;51.510;7.522;2023-06-14T09:10:42;23.80;38.40
58638;DHT22;54976;51.510;7.522;2023-06-14T09:13:43;23.80;38.70
58638;DHT22;54976;51.510;7.522;2023-06-14T09:16:43;23.50;38.60
58638;DHT22;54976;51.510;7.522;2023-06-14T09:19:45;23.60;39.70
58638;DHT22;54976;51.510;7.522;2023-06-14T09:22:46;24.60;38.60
58638;DHT22;54976;51.510;7.522;2023-06-14T09:25:46;24.50;38.90
58638;DHT22;54976;51.510;7.522;2023-06-14T09:28:48;24.30;39.40
58638;DHT22;54976;51.510;7.522;2023-06-14T09:31:50;24.40;40.00
58638;DHT22;54976;51.510;7.522;2023-06-14T09:34:51;24.80;38.50
58638;DHT22;54976;51.510;7.522;2023-06-14T09:37:55;25.50;39.20
58638;DHT22;54976;51.510;7.522;2023-06-14T09:40:59;26.10;37.90
58638;DHT22;54976;51.510;7.522;2023-06-14T09:44:00;25.40;38.20
58638;DHT22;54976;51.510;7.522;2023-06-14T09:47:02;25.20;38.40
58638;DHT22;54976;51.510;7.522;2023-06-14T09:50:04;25.30;38.60
58638;DHT22;54976;51.510;7.522;2023-06-14T09:53:11;24.70;39.60
58638;DHT22;54976;51.510;7.522;2023-06-14T09:56:12;24.50;40.00
58638;DHT22;54976;51.510;7.522;2023-06-14T09:59:16;24.50;40.00
58638;DHT22;54976;51.510;7.522;2023-06-14T10:02:25;24.60;39.70
58638;DHT22;54976;51.510;7.522;2023-06-14T10:05:27;24.60;39.90
58638;DHT22;54976;51.510;7.522;2023-06-14T10:08:30;25.10;40.20
58638;DHT22;54976;51.510;7.522;2023-06-14T10:11:35;25.00;40.10
58638;DHT22;54976;51.510;7.522;2023-06-14T10:14:36;25.40;38.50
58638;DHT22;54976;51.510;7.522;2023-06-14T10:18:02;25.70;38.30
58638;DHT22;54976;51.510;7.522;2023-06-14T10:21:08;25.70;37.90
58638;DHT22;54976;51.510;7.522;2023-06-14T10:24:16;25.00;39.00
58638;DHT22;54976;51.510;7.522;2023-06-14T10:27:18;24.30;40.40
58638;DHT22;54976;51.510;7.522;2023-06-14T10:30:25;24.10;41.00
58638;DHT22;54976;51.510;7.522;2023-06-14T10:33:26;23.80;41.30
58638;DHT22;54976;51.510;7.522;2023-06-14T10:36:30;23.60;41.30
58638;DHT22;54976;51.510;7.522;2023-06-14T10:42:51;23.60;41.40
58638;DHT22;54976;51.510;7.522;2023-06-14T10:46:18;23.70;41.90
58638;DHT22;54976;51.510;7.522;2023-06-14T10:49:42;23.60;41.10
58638;DHT22;54976;51.510;7.522;2023-06-14T10:52:43;23.10;42.60
58638;DHT22;54976;51.510;7.522;2023-06-14T10:55:44;22.80;42.80
58638;DHT22;54976;51.510;7.522;2023-06-14T10:58:45;22.70;43.20
58638;DHT22;54976;51.510;7.522;2023-06-14T11:05:14;22.40;43.50
58638;DHT22;54976;51.510;7.522;2023-06-14T11:11:17;22.30;43.50
58638;DHT22;54976;51.510;7.522;2023-06-14T11:14:19;22.10;43.30
58638;DHT22;54976;51.510;7.522;2023-06-14T11:17:20;22.10;43.10
58638;DHT22;54976;51.510;7.522;2023-06-14T11:20:20;22.20;43.30
58638;DHT22;54976;51.510;7.522;2023-06-14T11:23:24;22.30;43.20
58638;DHT22;54976;51.510;7.522;2023-06-14T11:29:29;22.50;43.10
58638;DHT22;54976;51.510;7.522;2023-06-14T11:32:31;22.60;42.70
58638;DHT22;54976;51.510;7.522;2023-06-14T11:35:32;22.70;42.50
58638;DHT22;54976;51.510;7.522;2023-06-14T11:38:36;22.60;42.40
58638;DHT22;54976;51.510;7.522;2023-06-14T11:41:42;22.70;43.20
58638;DHT22;54976;51.510;7.522;2023-06-14T11:44:46;22.90;43.20
58638;DHT22;54976;51.510;7.522;2023-06-14T11:47:47;22.90;41.90
58638;DHT22;54976;51.510;7.522;2023-06-14T11:50:49;23.10;42.60
58638;DHT22;54976;51.510;7.522;2023-06-14T11:53:50;23.30;41.60
58638;DHT22;54976;51.510;7.522;2023-06-14T11:56:51;23.40;41.20
58638;DHT22;54976;51.510;7.522;2023-06-14T11:59:52;23.60;42.10
58638;DHT22;54976;51.510;7.522;2023-06-14T12:02:56;23.80;42.10
58638;DHT22;54976;51.510;7.522;2023-06-14T12:06:07;24.30;40.50
58638;DHT22;54976;51.510;7.522;2023-06-14T12:09:08;24.70;39.50
58638;DHT22;54976;51.510;7.522;2023-06-14T12:12:13;25.40;38.90
58638;DHT22;54976;51.510;7.522;2023-06-14T12:15:14;25.40;37.80
58638;DHT22;54976;51.510;7.522;2023-06-14T12:18:14;25.70;39.10
58638;DHT22;54976;51.510;7.522;2023-06-14T12:21:15;25.80;37.80
58638;DHT22;54976;51.510;7.522;2023-06-14T12:24:17;26.00;38.20
58638;DHT22;54976;51.510;7.522;2023-06-14T12:27:21;26.50;36.80
58638;DHT22;54976;51.510;7.522;2023-06-14T12:30:24;26.70;36.30
58638;DHT22;54976;51.510;7.522;2023-06-14T12:33:25;27.10;36.50
58638;DHT22;54976;51.510;7.522;2023-06-14T12:36:26;27.40;34.30
58638;DHT22;54976;51.510;7.522;2023-06-14T12:39:26;27.30;34.10
58638;DHT22;54976;51.510;7.522;2023-06-14T12:42:27;27.60;33.50
58638;DHT22;54976;51.510;7.522;2023-06-14T12:45:27;27.20;34.80
58638;DHT22;54976;51.510;7.522;2023-06-14T12:48:28;27.90;33.90
58638;DHT22;54976;51.510;7.522;2023-06-14T12:51:31;27.90;32.80
58638;DHT22;54976;51.510;7.522;2023-06-14T12:54:31;28.50;33.00
58638;DHT22;54976;51.510;7.522;2023-06-14T12:57:32;28.80;33.30
58638;DHT22;54976;51.510;7.522;2023-06-14T13:00:33;28.70;32.70
58638;DHT22;54976;51.510;7.522;2023-06-14T13:03:33;28.90;32.20
58638;DHT22;54976;51.510;7.522;2023-06-14T13:06:34;29.40;33.20
58638;DHT22;54976;51.510;7.522;2023-06-14T13:09:35;29.60;31.60
58638;DHT22;54976;51.510;7.522;2023-06-14T13:12:36;30.10;31.60
58638;DHT22;54976;51.510;7.522;2023-06-14T13:15:36;30.00;30.60
58638;DHT22;54976;51.510;7.522;2023-06-14T13:18:38;29.40;31.00
58638;DHT22;54976;51.510;7.522;2023-06-14T13:21:39;29.10;30.80
58638;DHT22;54976;51.510;7.522;2023-06-14T13:24:39;29.30;31.30
58638;DHT22;54976;51.510;7.522;2023-06-14T13:27:40;29.20;31.80
58638;DHT22;54976;51.510;7.522;2023-06-14T13:30:40;29.70;31.50
58638;DHT22;54976;51.510;7.522;2023-06-14T13:33:41;29.30;30.40
58638;DHT22;54976;51.510;7.522;2023-06-14T13:36:42;29.00;32.40
58638;DHT22;54976;51.510;7.522;2023-06-14T13:39:43;29.00;31.20
58638;DHT22;54976;51.510;7.522;2023-06-14T13:42:43;29.30;31.50
58638;DHT22;54976;51.510;7.522;2023-06-14T13:45:44;29.80;31.00
58638;DHT22;54976;51.510;7.522;2023-06-14T13:48:45;29.70;30.00
58638;DHT22;54976;51.510;7.522;2023-06-14T13:51:48;29.60;30.50
58638;DHT22;54976;51.510;7.522;2023-06-14T13:54:48;29.70;30.70
58638;DHT22;54976;51.510;7.522;2023-06-14T13:57:49;29.60;31.30
58638;DHT22;54976;51.510;7.522;2023-06-14T14:00:50;30.10;30.80
58638;DHT22;54976;51.510;7.522;2023-06-14T14:03:50;30.60;30.30
58638;DHT22;54976;51.510;7.522;2023-06-14T14:06:51;31.00;29.60
58638;DHT22;54976;51.510;7.522;2023-06-14T14:09:51;30.40;30.00
58638;DHT22;54976;51.510;7.522;2023-06-14T14:12:53;29.80;30.50
58638;DHT22;54976;51.510;7.522;2023-06-14T14:15:55;30.20;30.00
58638;DHT22;54976;51.510;7.522;2023-06-14T14:18:55;30.60;29.40
58638;DHT22;54976;51.510;7.522;2023-06-14T14:21:56;30.40;30.20
58638;DHT22;54976;51.510;7.522;2023-06-14T14:24:57;30.10;29.90
58638;DHT22;54976;51.510;7.522;2023-06-14T14:27:57;29.70;30.40
58638;DHT22;54976;51.510;7.522;2023-06-14T14:30:58;29.10;30.60
58638;DHT22;54976;51.510;7.522;2023-06-14T14:33:58;28.80;31.10
58638;DHT22;54976;51.510;7.522;2023-06-14T14:36:59;28.90;31.30
58638;DHT22;54976;51.510;7.522;2023-06-14T14:40:00;29.30;31.20
58638;DHT22;54976;51.510;7.522;2023-06-14T14:43:00;29.40;30.30
58638;DHT22;54976;51.510;7.522;2023-06-14T14:46:01;29.70;29.40
58638;DHT22;54976;51.510;7.522;2023-06-14T14:49:02;29.30;30.50
58638;DHT22;54976;51.510;7.522;2023-06-14T14:52:03;29.50;30.00
58638;DHT22;54976;51.510;7.522;2023-06-14T14:55:04;29.50;30.10
58638;DHT22;54976;51.510;7.522;2023-06-14T14:58:05;29.80;30.00
58638;DHT22;54976;51.510;7.522;2023-06-14T15:01:07;30.00;30.00
58638;DHT22;54976;51.510;7.522;2023-06-14T15:04:07;29.30;29.50
58638;DHT22;54976;51.510;7.522;2023-06-14T15:07:08;29.20;29.90
58638;DHT22;54976;51.510;7.522;2023-06-14T15:10:09;29.20;30.90
58638;DHT22;54976;51.510;7.522;2023-06-14T15:13:10;29.30;30.00
58638;DHT22;54976;51.510;7.522;2023-06-14T15:16:11;28.80;29.90
58638;DHT22;54976;51.510;7.522;2023-06-14T15:19:11;29.00;31.00
58638;DHT22;54976;51.510;7.522;2023-06-14T15:22:12;29.30;29.60
58638;DHT22;54976;51.510;7.522;2023-06-14T15:25:12;29.30;29.20
58638;DHT22;54976;51.510;7.522;2023-06-14T15:28:13;29.20;29.40
58638;DHT22;54976;51.510;7.522;2023-06-14T15:31:15;29.30;30.00
58638;DHT22;54976;51.510;7.522;2023-06-14T15:34:15;29.40;29.90
58638;DHT22;54976;51.510;7.522;2023-06-14T15:37:16;29.00;31.10
58638;DHT22;54976;51.510;7.522;2023-06-14T15:40:16;29.00;31.00
58638;DHT22;54976;51.510;7.522;2023-06-14T15:43:17;28.20;31.70
58638;DHT22;54976;51.510;7.522;2023-06-14T15:46:21;28.30;32.20
58638;DHT22;54976;51.510;7.522;2023-06-14T15:49:22;28.60;31.10
58638;DHT22;54976;51.510;7.522;2023-06-14T15:52:22;28.30;31.00
58638;DHT22;54976;51.510;7.522;2023-06-14T15:55:23;28.20;32.30
58638;DHT22;54976;51.510;7.522;2023-06-14T15:58:23;28.20;31.40
58638;DHT22;54976;51.510;7.522;2023-06-14T16:01:24;28.10;31.60
58638;DHT22;54976;51.510;7.522;2023-06-14T16:04:24;27.50;32.10
58638;DHT22;54976;51.510;7.522;2023-06-14T16:07:25;27.20;32.70
58638;DHT22;54976;51.510;7.522;2023-06-14T16:10:26;26.70;33.00
58638;DHT22;54976;51.510;7.522;2023-06-14T16:13:27;26.70;33.90
58638;DHT22;54976;51.510;7.522;2023-06-14T16:16:27;26.50;33.40
58638;DHT22;54976;51.510;7.522;2023-06-14T16:19:28;26.40;34.20
58638;DHT22;54976;51.510;7.522;2023-06-14T16:22:29;26.40;34.40
58638;DHT22;54976;51.510;7.522;2023-06-14T16:25:29;26.40;34.60
58638;DHT22;54976;51.510;7.522;2023-06-14T16:28:30;26.40;35.50
58638;DHT22;54976;51.510;7.522;2023-06-14T16:31:32;26.40;35.30
58638;DHT22;54976;51.510;7.522;2023-06-14T16:34:32;25.90;35.60
58638;DHT22;54976;51.510;7.522;2023-06-14T16:37:35;25.70;36.50
58638;DHT22;54976;51.510;7.522;2023-06-14T16:40:35;25.40;35.70
58638;DHT22;54976;51.510;7.522;2023-06-14T16:43:36;25.20;37.20
58638;DHT22;54976;51.510;7.522;2023-06-14T16:46:37;25.20;36.50
58638;DHT22;54976;51.510;7.522;2023-06-14T16:49:38;25.40;36.60
58638;DHT22;54976;51.510;7.522;2023-06-14T16:52:38;25.50;37.20
58638;DHT22;54976;51.510;7.522;2023-06-14T16:55:39;25.80;37.50
58638;DHT22;54976;51.510;7.522;2023-06-14T16:58:39;25.80;36.30
58638;DHT22;54976;51.510;7.522;2023-06-14T17:01:40;25.40;36.90
58638;DHT22;54976;51.510;7.522;2023-06-14T17:04:40;25.40;37.90
58638;DHT22;54976;51.510;7.522;2023-06-14T17:07:41;25.30;38.20
58638;DHT22;54976;51.510;7.522;2023-06-14T17:10:42;25.20;37.30
58638;DHT22;54976;51.510;7.522;2023-06-14T17:13:42;25.10;37.80
58638;DHT22;54976;51.510;7.522;2023-06-14T17:16:43;25.10;38.20
58638;DHT22;54976;51.510;7.522;2023-06-14T17:19:43;25.00;37.50
58638;DHT22;54976;51.510;7.522;2023-06-14T17:22:44;24.80;38.60
58638;DHT22;54976;51.510;7.522;2023-06-14T17:25:44;24.70;37.60
58638;DHT22;54976;51.510;7.522;2023-06-14T17:28:45;24.50;38.50
58638;DHT22;54976;51.510;7.522;2023-06-14T17:31:46;24.40;38.50
58638;DHT22;54976;51.510;7.522;2023-06-14T17:34:46;24.20;39.10
58638;DHT22;54976;51.510;7.522;2023-06-14T17:37:47;24.20;39.10
58638;DHT22;54976;51.510;7.522;2023-06-14T17:40:47;24.00;39.60
58638;DHT22;54976;51.510;7.522;2023-06-14T17:43:48;24.00;40.00
58638;DHT22;54976;51.510;7.522;2023-06-14T17:46:49;23.90;39.90
58638;DHT22;54976;51.510;7.522;2023-06-14T17:49:49;23.70;40.00
58638;DHT22;54976;51.510;7.522;2023-06-14T17:52:52;23.60;40.10
58638;DHT22;54976;51.510;7.522;2023-06-14T17:55:53;23.40;40.00
58638;DHT22;54976;51.510;7.522;2023-06-14T17:58:54;23.40;40.40
58638;DHT22;54976;51.510;7.522;2023-06-14T18:01:55;23.40;40.90
58638;DHT22;54976;51.510;7.522;2023-06-14T18:04:56;23.30;40.70
58638;DHT22;54976;51.510;7.522;2023-06-14T18:07:57;23.30;41.40
58638;DHT22;54976;51.510;7.522;2023-06-14T18:10:57;23.30;41.30
58638;DHT22;54976;51.510;7.522;2023-06-14T18:13:58;23.30;41.20
58638;DHT22;54976;51.510;7.522;2023-06-14T18:16:59;23.30;41.50
58638;DHT22;54976;51.510;7.522;2023-06-14T18:19:59;23.20;42.10
58638;DHT22;54976;51.510;7.522;2023-06-14T18:23:01;23.20;40.60
58638;DHT22;54976;51.510;7.522;2023-06-14T18:26:01;23.10;41.00
58638;DHT22;54976;51.510;7.522;2023-06-14T18:29:02;23.10;40.90
58638;DHT22;54976;51.510;7.522;2023-06-14T18:32:03;23.10;41.30
58638;DHT22;54976;51.510;7.522;2023-06-14T18:35:04;23.00;41.50
58638;DHT22;54976;51.510;7.522;2023-06-14T18:38:05;22.90;41.50
58638;DHT22;54976;51.510;7.522;2023-06-14T18:41:06;22.80;41.70
58638;DHT22;54976;51.510;7.522;2023-06-14T18:44:07;22.80;41.80
58638;DHT22;54976;51.510;7.522;2023-06-14T18:47:07;22.80;42.40
58638;DHT22;54976;51.510;7.522;2023-06-14T18:50:08;22.70;42.40
58638;DHT22;54976;51.510;7.522;2023-06-14T18:53:09;22.70;42.50
58638;DHT22;54976;51.510;7.522;2023-06-14T18:56:09;22.60;42.70
58638;DHT22;54976;51.510;7.522;2023-06-14T18:59:10;22.60;43.00
58638;DHT22;54976;51.510;7.522;2023-06-14T19:02:11;22.60;43.40
58638;DHT22;54976;51.510;7.522;2023-06-14T19:05:11;22.50;43.00
58638;DHT22;54976;51.510;7.522;2023-06-14T19:08:12;22.40;43.00
58638;DHT22;54976;51.510;7.522;2023-06-14T19:11:12;22.40;43.70
58638;DHT22;54976;51.510;7.522;2023-06-14T19:14:13;22.30;43.80
58638;DHT22;54976;51.510;7.522;2023-06-14T19:17:14;22.20;44.30
58638;DHT22;54976;51.510;7.522;2023-06-14T19:20:15;22.10;44.30